BIU weather

Bildudalur Airport
Bildudalur, Westfjords, Iceland

Public forecast

Using degrees Celsius for public forecast. Weather courtesy of forecast.io.

METAR (pilot weather report)

Report is more than 6 hours old.

Retrieved 2019/03/22 16:00 UTC (16 hours ago):

BIBD 221600Z 18003KT 4000 -SN VV010 01/M01 Q0980

TAF (pilot weather forecast)

Closest forecast is Reykjavik Airport, 99.5 nm (184.3 km) SSE. Retrieved 2019/03/23 09:03 UTC (0 seconds ago):

TAF BIRK 230802Z 2309/2409 16015KT 9999 SCT012 BKN020 TX04/2315Z TN00/2309Z TEMPO 2309/2313 16014G25KT 2000 SNRA BKN010 OVC015 BECMG 2313/2315 21015KT 9999 -SHRASN BKN025 TEMPO 2315/2406 5000 SHRASN BKN014CB BECMG 2401/2403 30015KT